sensor_id;sensor_type;location;lat;lon;timestamp;P1;durP1;ratioP1;P2;durP2;ratioP2
61903;SDS011;47857;52.270;6.804;2022-11-15T00:02:02;19.77;;;12.77;;
61903;SDS011;47857;52.270;6.804;2022-11-15T00:04:48;19.80;;;13.48;;
61903;SDS011;47857;52.270;6.804;2022-11-15T00:10:17;21.90;;;13.32;;
61903;SDS011;47857;52.270;6.804;2022-11-15T00:15:48;23.15;;;14.98;;
61903;SDS011;47857;52.270;6.804;2022-11-15T00:18:32;23.20;;;14.55;;
61903;SDS011;47857;52.270;6.804;2022-11-15T00:21:17;23.10;;;15.18;;
61903;SDS011;47857;52.270;6.804;2022-11-15T00:24:01;26.08;;;15.75;;
61903;SDS011;47857;52.270;6.804;2022-11-15T00:29:29;21.50;;;14.77;;
61903;SDS011;47857;52.270;6.804;2022-11-15T00:32:14;23.13;;;14.70;;
61903;SDS011;47857;52.270;6.804;2022-11-15T00:37:42;25.27;;;15.30;;
61903;SDS011;47857;52.270;6.804;2022-11-15T00:43:10;26.63;;;16.20;;
61903;SDS011;47857;52.270;6.804;2022-11-15T00:45:55;31.30;;;17.85;;
61903;SDS011;47857;52.270;6.804;2022-11-15T00:48:39;33.72;;;18.15;;
61903;SDS011;47857;52.270;6.804;2022-11-15T00:51:23;32.92;;;17.02;;
61903;SDS011;47857;52.270;6.804;2022-11-15T00:54:07;32.33;;;17.85;;
61903;SDS011;47857;52.270;6.804;2022-11-15T00:56:51;34.47;;;18.95;;
61903;SDS011;47857;52.270;6.804;2022-11-15T00:59:35;38.90;;;19.40;;
61903;SDS011;47857;52.270;6.804;2022-11-15T01:05:04;34.17;;;19.73;;
61903;SDS011;47857;52.270;6.804;2022-11-15T01:07:52;32.20;;;18.27;;
61903;SDS011;47857;52.270;6.804;2022-11-15T01:10:36;36.85;;;19.33;;
61903;SDS011;47857;52.270;6.804;2022-11-15T01:13:20;39.10;;;20.70;;
61903;SDS011;47857;52.270;6.804;2022-11-15T01:16:12;35.47;;;18.25;;
61903;SDS011;47857;52.270;6.804;2022-11-15T01:18:57;31.85;;;18.45;;
61903;SDS011;47857;52.270;6.804;2022-11-15T01:21:41;41.17;;;20.45;;
61903;SDS011;47857;52.270;6.804;2022-11-15T01:27:09;36.77;;;19.57;;
61903;SDS011;47857;52.270;6.804;2022-11-15T01:32:37;42.15;;;20.95;;
61903;SDS011;47857;52.270;6.804;2022-11-15T01:35:21;39.78;;;20.52;;
61903;SDS011;47857;52.270;6.804;2022-11-15T01:38:05;33.72;;;19.67;;
61903;SDS011;47857;52.270;6.804;2022-11-15T01:43:35;38.13;;;20.27;;
61903;SDS011;47857;52.270;6.804;2022-11-15T01:46:29;35.83;;;19.60;;
61903;SDS011;47857;52.270;6.804;2022-11-15T01:49:17;34.38;;;19.30;;
61903;SDS011;47857;52.270;6.804;2022-11-15T01:52:03;36.95;;;20.58;;
61903;SDS011;47857;52.270;6.804;2022-11-15T01:54:50;38.92;;;20.40;;
61903;SDS011;47857;52.270;6.804;2022-11-15T01:57:39;38.28;;;20.50;;
61903;SDS011;47857;52.270;6.804;2022-11-15T02:00:24;34.85;;;20.33;;
61903;SDS011;47857;52.270;6.804;2022-11-15T02:05:52;34.67;;;18.97;;
61903;SDS011;47857;52.270;6.804;2022-11-15T02:08:36;36.17;;;20.17;;
61903;SDS011;47857;52.270;6.804;2022-11-15T02:11:20;32.47;;;19.35;;
61903;SDS011;47857;52.270;6.804;2022-11-15T02:14:05;32.47;;;19.30;;
61903;SDS011;47857;52.270;6.804;2022-11-15T02:20:14;30.63;;;19.08;;
61903;SDS011;47857;52.270;6.804;2022-11-15T02:32:20;31.20;;;20.05;;
61903;SDS011;47857;52.270;6.804;2022-11-15T02:35:30;33.88;;;20.15;;
61903;SDS011;47857;52.270;6.804;2022-11-15T02:44:24;33.92;;;20.45;;
61903;SDS011;47857;52.270;6.804;2022-11-15T02:47:11;36.92;;;20.70;;
61903;SDS011;47857;52.270;6.804;2022-11-15T02:49:57;35.47;;;20.80;;
61903;SDS011;47857;52.270;6.804;2022-11-15T02:52:46;45.13;;;21.42;;
61903;SDS011;47857;52.270;6.804;2022-11-15T02:55:35;39.92;;;20.20;;
61903;SDS011;47857;52.270;6.804;2022-11-15T03:01:46;36.88;;;19.05;;
61903;SDS011;47857;52.270;6.804;2022-11-15T03:13:59;35.88;;;19.42;;
61903;SDS011;47857;52.270;6.804;2022-11-15T03:16:47;29.25;;;17.02;;
61903;SDS011;47857;52.270;6.804;2022-11-15T03:22:27;29.10;;;18.35;;
61903;SDS011;47857;52.270;6.804;2022-11-15T03:25:14;28.05;;;17.35;;
61903;SDS011;47857;52.270;6.804;2022-11-15T03:28:02;28.60;;;17.98;;
61903;SDS011;47857;52.270;6.804;2022-11-15T03:30:48;29.38;;;17.90;;
61903;SDS011;47857;52.270;6.804;2022-11-15T03:33:33;29.48;;;17.05;;
61903;SDS011;47857;52.270;6.804;2022-11-15T03:39:02;30.02;;;16.08;;
61903;SDS011;47857;52.270;6.804;2022-11-15T03:41:56;29.58;;;16.15;;
61903;SDS011;47857;52.270;6.804;2022-11-15T03:45:03;26.90;;;16.40;;
61903;SDS011;47857;52.270;6.804;2022-11-15T03:48:30;23.33;;;15.60;;
61903;SDS011;47857;52.270;6.804;2022-11-15T03:51:11;25.60;;;15.43;;
61903;SDS011;47857;52.270;6.804;2022-11-15T03:53:55;29.02;;;16.67;;
61903;SDS011;47857;52.270;6.804;2022-11-15T03:56:39;23.58;;;15.57;;
61903;SDS011;47857;52.270;6.804;2022-11-15T03:59:23;26.70;;;15.82;;
61903;SDS011;47857;52.270;6.804;2022-11-15T04:02:08;23.95;;;14.82;;
61903;SDS011;47857;52.270;6.804;2022-11-15T04:04:52;28.52;;;14.80;;
61903;SDS011;47857;52.270;6.804;2022-11-15T04:07:36;26.77;;;15.35;;
61903;SDS011;47857;52.270;6.804;2022-11-15T04:10:20;22.83;;;14.73;;
61903;SDS011;47857;52.270;6.804;2022-11-15T04:13:04;25.90;;;14.95;;
61903;SDS011;47857;52.270;6.804;2022-11-15T04:18:32;23.07;;;14.33;;
61903;SDS011;47857;52.270;6.804;2022-11-15T04:21:17;23.17;;;15.10;;
61903;SDS011;47857;52.270;6.804;2022-11-15T04:24:20;21.88;;;14.25;;
61903;SDS011;47857;52.270;6.804;2022-11-15T04:27:04;23.20;;;14.05;;
61903;SDS011;47857;52.270;6.804;2022-11-15T04:32:32;19.50;;;13.57;;
61903;SDS011;47857;52.270;6.804;2022-11-15T04:35:15;20.88;;;12.98;;
61903;SDS011;47857;52.270;6.804;2022-11-15T04:40:44;20.00;;;13.77;;
61903;SDS011;47857;52.270;6.804;2022-11-15T04:46:12;21.02;;;13.90;;
61903;SDS011;47857;52.270;6.804;2022-11-15T04:48:56;21.35;;;13.70;;
61903;SDS011;47857;52.270;6.804;2022-11-15T04:54:24;21.83;;;14.50;;
61903;SDS011;47857;52.270;6.804;2022-11-15T04:59:53;19.90;;;13.75;;
61903;SDS011;47857;52.270;6.804;2022-11-15T05:02:37;20.95;;;13.80;;
61903;SDS011;47857;52.270;6.804;2022-11-15T05:05:40;20.05;;;13.63;;
61903;SDS011;47857;52.270;6.804;2022-11-15T05:08:24;21.90;;;14.30;;
61903;SDS011;47857;52.270;6.804;2022-11-15T05:11:09;20.63;;;14.23;;
61903;SDS011;47857;52.270;6.804;2022-11-15T05:13:53;22.25;;;14.02;;
61903;SDS011;47857;52.270;6.804;2022-11-15T05:19:21;21.97;;;13.60;;
61903;SDS011;47857;52.270;6.804;2022-11-15T05:22:05;19.80;;;13.23;;
61903;SDS011;47857;52.270;6.804;2022-11-15T05:27:36;17.70;;;12.52;;
61903;SDS011;47857;52.270;6.804;2022-11-15T05:30:20;18.88;;;13.32;;
61903;SDS011;47857;52.270;6.804;2022-11-15T05:33:04;24.60;;;15.27;;
61903;SDS011;47857;52.270;6.804;2022-11-15T05:38:37;26.25;;;15.23;;
61903;SDS011;47857;52.270;6.804;2022-11-15T05:41:24;24.35;;;14.02;;
61903;SDS011;47857;52.270;6.804;2022-11-15T05:44:11;25.88;;;14.35;;
61903;SDS011;47857;52.270;6.804;2022-11-15T05:46:57;20.98;;;12.85;;
61903;SDS011;47857;52.270;6.804;2022-11-15T05:49:42;18.98;;;13.65;;
61903;SDS011;47857;52.270;6.804;2022-11-15T05:52:28;24.63;;;12.88;;
61903;SDS011;47857;52.270;6.804;2022-11-15T05:55:13;20.85;;;13.15;;
61903;SDS011;47857;52.270;6.804;2022-11-15T05:57:58;20.08;;;13.30;;
61903;SDS011;47857;52.270;6.804;2022-11-15T06:03:27;23.77;;;13.07;;
61903;SDS011;47857;52.270;6.804;2022-11-15T06:06:11;21.15;;;12.73;;
61903;SDS011;47857;52.270;6.804;2022-11-15T06:08:55;22.58;;;13.77;;
61903;SDS011;47857;52.270;6.804;2022-11-15T06:11:39;22.40;;;13.50;;
61903;SDS011;47857;52.270;6.804;2022-11-15T06:14:23;20.88;;;14.30;;
61903;SDS011;47857;52.270;6.804;2022-11-15T06:17:07;22.42;;;14.60;;
61903;SDS011;47857;52.270;6.804;2022-11-15T06:19:51;27.48;;;15.75;;
61903;SDS011;47857;52.270;6.804;2022-11-15T06:22:35;25.13;;;15.60;;
61903;SDS011;47857;52.270;6.804;2022-11-15T06:28:04;24.95;;;16.45;;
61903;SDS011;47857;52.270;6.804;2022-11-15T06:33:32;30.03;;;18.23;;
61903;SDS011;47857;52.270;6.804;2022-11-15T06:39:00;29.87;;;19.10;;
61903;SDS011;47857;52.270;6.804;2022-11-15T06:41:45;26.40;;;17.83;;
61903;SDS011;47857;52.270;6.804;2022-11-15T06:47:13;27.52;;;18.30;;
61903;SDS011;47857;52.270;6.804;2022-11-15T06:49:57;26.02;;;18.48;;
61903;SDS011;47857;52.270;6.804;2022-11-15T06:55:28;26.13;;;17.58;;
61903;SDS011;47857;52.270;6.804;2022-11-15T07:01:03;20.70;;;14.27;;
61903;SDS011;47857;52.270;6.804;2022-11-15T07:03:48;30.05;;;19.25;;
61903;SDS011;47857;52.270;6.804;2022-11-15T07:06:32;27.52;;;18.80;;
61903;SDS011;47857;52.270;6.804;2022-11-15T07:09:16;26.23;;;19.95;;
61903;SDS011;47857;52.270;6.804;2022-11-15T07:12:00;28.00;;;19.58;;
61903;SDS011;47857;52.270;6.804;2022-11-15T07:17:28;18.87;;;14.53;;
61903;SDS011;47857;52.270;6.804;2022-11-15T07:20:13;29.15;;;20.33;;
61903;SDS011;47857;52.270;6.804;2022-11-15T07:23:04;30.73;;;20.65;;
61903;SDS011;47857;52.270;6.804;2022-11-15T07:25:48;32.40;;;21.67;;
61903;SDS011;47857;52.270;6.804;2022-11-15T07:28:32;26.70;;;19.98;;
61903;SDS011;47857;52.270;6.804;2022-11-15T07:31:17;30.80;;;21.25;;
61903;SDS011;47857;52.270;6.804;2022-11-15T07:34:01;34.67;;;23.00;;
61903;SDS011;47857;52.270;6.804;2022-11-15T07:36:45;28.40;;;20.67;;
61903;SDS011;47857;52.270;6.804;2022-11-15T07:39:32;27.73;;;20.35;;
61903;SDS011;47857;52.270;6.804;2022-11-15T07:42:16;27.92;;;20.42;;
61903;SDS011;47857;52.270;6.804;2022-11-15T07:45:19;30.90;;;22.65;;
61903;SDS011;47857;52.270;6.804;2022-11-15T07:48:04;29.92;;;21.83;;
61903;SDS011;47857;52.270;6.804;2022-11-15T07:53:32;31.63;;;22.90;;
61903;SDS011;47857;52.270;6.804;2022-11-15T07:56:16;33.50;;;22.25;;
61903;SDS011;47857;52.270;6.804;2022-11-15T07:59:00;35.55;;;24.30;;
61903;SDS011;47857;52.270;6.804;2022-11-15T08:01:44;34.42;;;23.35;;
61903;SDS011;47857;52.270;6.804;2022-11-15T08:07:12;32.63;;;23.98;;
61903;SDS011;47857;52.270;6.804;2022-11-15T08:09:57;34.10;;;24.48;;
61903;SDS011;47857;52.270;6.804;2022-11-15T08:12:41;33.40;;;23.98;;
61903;SDS011;47857;52.270;6.804;2022-11-15T08:15:25;29.25;;;21.75;;
61903;SDS011;47857;52.270;6.804;2022-11-15T08:18:11;33.97;;;23.85;;
61903;SDS011;47857;52.270;6.804;2022-11-15T08:20:58;28.70;;;21.33;;
61903;SDS011;47857;52.270;6.804;2022-11-15T08:23:43;33.15;;;21.83;;
61903;SDS011;47857;52.270;6.804;2022-11-15T08:26:28;30.73;;;20.85;;
61903;SDS011;47857;52.270;6.804;2022-11-15T08:29:13;29.55;;;21.00;;
61903;SDS011;47857;52.270;6.804;2022-11-15T08:34:41;28.53;;;20.53;;
61903;SDS011;47857;52.270;6.804;2022-11-15T08:40:09;26.40;;;17.77;;
61903;SDS011;47857;52.270;6.804;2022-11-15T08:42:54;27.23;;;17.33;;
61903;SDS011;47857;52.270;6.804;2022-11-15T08:48:22;22.63;;;16.23;;
61903;SDS011;47857;52.270;6.804;2022-11-15T08:51:07;20.63;;;14.77;;
61903;SDS011;47857;52.270;6.804;2022-11-15T08:53:51;18.95;;;13.27;;
61903;SDS011;47857;52.270;6.804;2022-11-15T08:59:19;16.92;;;11.80;;
61903;SDS011;47857;52.270;6.804;2022-11-15T09:02:03;19.33;;;10.93;;
61903;SDS011;47857;52.270;6.804;2022-11-15T09:04:47;14.60;;;10.43;;
61903;SDS011;47857;52.270;6.804;2022-11-15T09:07:31;12.95;;;9.40;;
61903;SDS011;47857;52.270;6.804;2022-11-15T09:12:59;13.48;;;8.93;;
61903;SDS011;47857;52.270;6.804;2022-11-15T09:18:28;13.23;;;9.00;;
61903;SDS011;47857;52.270;6.804;2022-11-15T09:21:12;16.75;;;9.98;;
61903;SDS011;47857;52.270;6.804;2022-11-15T09:23:56;15.45;;;10.45;;
61903;SDS011;47857;52.270;6.804;2022-11-15T09:26:40;16.35;;;12.35;;
61903;SDS011;47857;52.270;6.804;2022-11-15T09:29:25;16.65;;;12.48;;
61903;SDS011;47857;52.270;6.804;2022-11-15T09:32:10;13.45;;;11.43;;
61903;SDS011;47857;52.270;6.804;2022-11-15T09:34:54;16.50;;;12.13;;
61903;SDS011;47857;52.270;6.804;2022-11-15T09:37:38;15.93;;;11.95;;
61903;SDS011;47857;52.270;6.804;2022-11-15T09:40:22;15.52;;;9.93;;
61903;SDS011;47857;52.270;6.804;2022-11-15T09:49:22;14.93;;;8.52;;
61903;SDS011;47857;52.270;6.804;2022-11-15T09:52:02;10.63;;;6.75;;
61903;SDS011;47857;52.270;6.804;2022-11-15T09:54:29;11.00;;;6.82;;
61903;SDS011;47857;52.270;6.804;2022-11-15T09:57:12;11.68;;;6.72;;
61903;SDS011;47857;52.270;6.804;2022-11-15T09:59:44;8.00;;;5.63;;
61903;SDS011;47857;52.270;6.804;2022-11-15T10:02:22;11.98;;;5.75;;
61903;SDS011;47857;52.270;6.804;2022-11-15T10:05:14;11.45;;;6.22;;
61903;SDS011;47857;52.270;6.804;2022-11-15T10:13:07;10.20;;;5.07;;
61903;SDS011;47857;52.270;6.804;2022-11-15T10:16:04;7.70;;;4.53;;
61903;SDS011;47857;52.270;6.804;2022-11-15T10:18:55;8.30;;;4.68;;
61903;SDS011;47857;52.270;6.804;2022-11-15T10:24:10;7.85;;;5.47;;
61903;SDS011;47857;52.270;6.804;2022-11-15T10:26:36;12.48;;;5.72;;
61903;SDS011;47857;52.270;6.804;2022-11-15T10:29:01;11.38;;;6.18;;
61903;SDS011;47857;52.270;6.804;2022-11-15T10:31:27;15.07;;;6.40;;
61903;SDS011;47857;52.270;6.804;2022-11-15T10:36:43;10.50;;;5.85;;
61903;SDS011;47857;52.270;6.804;2022-11-15T10:39:19;11.05;;;5.53;;
61903;SDS011;47857;52.270;6.804;2022-11-15T10:41:45;8.48;;;5.10;;
61903;SDS011;47857;52.270;6.804;2022-11-15T10:44:18;6.72;;;4.25;;
61903;SDS011;47857;52.270;6.804;2022-11-15T10:46:45;9.00;;;5.63;;
61903;SDS011;47857;52.270;6.804;2022-11-15T10:49:29;11.70;;;4.90;;
61903;SDS011;47857;52.270;6.804;2022-11-15T10:52:00;8.82;;;4.75;;
61903;SDS011;47857;52.270;6.804;2022-11-15T10:54:43;11.27;;;3.72;;
61903;SDS011;47857;52.270;6.804;2022-11-15T10:57:20;6.53;;;3.20;;
61903;SDS011;47857;52.270;6.804;2022-11-15T10:59:48;8.18;;;3.47;;
61903;SDS011;47857;52.270;6.804;2022-11-15T11:02:29;7.15;;;3.08;;
61903;SDS011;47857;52.270;6.804;2022-11-15T11:05:06;6.65;;;3.20;;
61903;SDS011;47857;52.270;6.804;2022-11-15T11:07:58;8.68;;;3.40;;
61903;SDS011;47857;52.270;6.804;2022-11-15T11:10:26;8.05;;;2.92;;
61903;SDS011;47857;52.270;6.804;2022-11-15T11:12:52;9.65;;;2.95;;
61903;SDS011;47857;52.270;6.804;2022-11-15T11:15:18;7.25;;;2.70;;
61903;SDS011;47857;52.270;6.804;2022-11-15T11:20:58;5.82;;;2.15;;
61903;SDS011;47857;52.270;6.804;2022-11-15T11:36:42;8.38;;;2.97;;
61903;SDS011;47857;52.270;6.804;2022-11-15T11:50:27;3.42;;;1.20;;
61903;SDS011;47857;52.270;6.804;2022-11-15T11:53:11;5.75;;;1.20;;
61903;SDS011;47857;52.270;6.804;2022-11-15T11:55:40;5.20;;;1.73;;
61903;SDS011;47857;52.270;6.804;2022-11-15T11:58:16;4.68;;;1.95;;
61903;SDS011;47857;52.270;6.804;2022-11-15T12:00:46;3.42;;;2.30;;
61903;SDS011;47857;52.270;6.804;2022-11-15T12:03:43;4.07;;;2.33;;
61903;SDS011;47857;52.270;6.804;2022-11-15T12:06:27;4.45;;;2.40;;
61903;SDS011;47857;52.270;6.804;2022-11-15T12:11:51;6.38;;;2.80;;
61903;SDS011;47857;52.270;6.804;2022-11-15T12:14:25;5.68;;;2.78;;
61903;SDS011;47857;52.270;6.804;2022-11-15T12:16:55;6.07;;;3.70;;
61903;SDS011;47857;52.270;6.804;2022-11-15T12:19:20;6.95;;;3.63;;
61903;SDS011;47857;52.270;6.804;2022-11-15T12:22:03;5.85;;;4.10;;
61903;SDS011;47857;52.270;6.804;2022-11-15T12:24:39;12.13;;;4.07;;
61903;SDS011;47857;52.270;6.804;2022-11-15T12:27:15;5.75;;;4.00;;
61903;SDS011;47857;52.270;6.804;2022-11-15T12:29:45;7.57;;;4.53;;
61903;SDS011;47857;52.270;6.804;2022-11-15T12:34:46;8.23;;;5.40;;
61903;SDS011;47857;52.270;6.804;2022-11-15T12:40:13;8.18;;;5.03;;
61903;SDS011;47857;52.270;6.804;2022-11-15T12:45:34;11.02;;;4.78;;
61903;SDS011;47857;52.270;6.804;2022-11-15T12:48:44;7.22;;;5.00;;
61903;SDS011;47857;52.270;6.804;2022-11-15T12:50:59;6.78;;;4.68;;
61903;SDS011;47857;52.270;6.804;2022-11-15T12:53:27;6.65;;;4.68;;
61903;SDS011;47857;52.270;6.804;2022-11-15T13:06:37;7.55;;;3.92;;
61903;SDS011;47857;52.270;6.804;2022-11-15T13:09:49;5.40;;;3.42;;
61903;SDS011;47857;52.270;6.804;2022-11-15T13:11:57;6.00;;;3.50;;
61903;SDS011;47857;52.270;6.804;2022-11-15T13:14:50;6.68;;;2.80;;
61903;SDS011;47857;52.270;6.804;2022-11-15T13:17:24;4.45;;;2.50;;
61903;SDS011;47857;52.270;6.804;2022-11-15T13:19:59;4.88;;;2.78;;
61903;SDS011;47857;52.270;6.804;2022-11-15T13:22:37;4.90;;;2.17;;
61903;SDS011;47857;52.270;6.804;2022-11-15T13:25:26;7.63;;;2.10;;
61903;SDS011;47857;52.270;6.804;2022-11-15T13:27:55;3.35;;;1.73;;
61903;SDS011;47857;52.270;6.804;2022-11-15T13:30:31;4.60;;;2.00;;
61903;SDS011;47857;52.270;6.804;2022-11-15T13:33:05;5.03;;;2.10;;
61903;SDS011;47857;52.270;6.804;2022-11-15T13:35:33;4.57;;;1.80;;
61903;SDS011;47857;52.270;6.804;2022-11-15T13:38:05;4.90;;;2.00;;
61903;SDS011;47857;52.270;6.804;2022-11-15T13:40:35;6.03;;;1.60;;
61903;SDS011;47857;52.270;6.804;2022-11-15T13:48:29;3.13;;;1.52;;
61903;SDS011;47857;52.270;6.804;2022-11-15T13:50:55;3.92;;;1.42;;
61903;SDS011;47857;52.270;6.804;2022-11-15T13:53:21;4.22;;;1.50;;
61903;SDS011;47857;52.270;6.804;2022-11-15T13:55:47;3.17;;;1.48;;
61903;SDS011;47857;52.270;6.804;2022-11-15T13:58:13;4.10;;;1.60;;
61903;SDS011;47857;52.270;6.804;2022-11-15T14:00:39;2.38;;;1.40;;
61903;SDS011;47857;52.270;6.804;2022-11-15T14:05:41;6.05;;;2.10;;
61903;SDS011;47857;52.270;6.804;2022-11-15T14:08:21;4.18;;;1.83;;
61903;SDS011;47857;52.270;6.804;2022-11-15T14:10:48;5.47;;;2.50;;
61903;SDS011;47857;52.270;6.804;2022-11-15T14:13:31;4.32;;;1.80;;
61903;SDS011;47857;52.270;6.804;2022-11-15T14:19:10;4.43;;;1.80;;
61903;SDS011;47857;52.270;6.804;2022-11-15T14:24:38;3.17;;;1.43;;
61903;SDS011;47857;52.270;6.804;2022-11-15T14:27:21;3.88;;;1.42;;
61903;SDS011;47857;52.270;6.804;2022-11-15T14:29:49;3.50;;;1.55;;
61903;SDS011;47857;52.270;6.804;2022-11-15T14:32:25;4.45;;;1.48;;
61903;SDS011;47857;52.270;6.804;2022-11-15T14:34:56;3.78;;;1.48;;
61903;SDS011;47857;52.270;6.804;2022-11-15T14:39:56;3.88;;;1.50;;
61903;SDS011;47857;52.270;6.804;2022-11-15T14:42:22;2.63;;;1.00;;
61903;SDS011;47857;52.270;6.804;2022-11-15T14:44:48;4.07;;;1.15;;
61903;SDS011;47857;52.270;6.804;2022-11-15T14:47:14;5.05;;;1.50;;
61903;SDS011;47857;52.270;6.804;2022-11-15T14:49:40;5.15;;;1.40;;
61903;SDS011;47857;52.270;6.804;2022-11-15T14:52:16;4.45;;;1.35;;
61903;SDS011;47857;52.270;6.804;2022-11-15T14:54:45;8.82;;;1.90;;
61903;SDS011;47857;52.270;6.804;2022-11-15T14:57:11;4.35;;;2.05;;
61903;SDS011;47857;52.270;6.804;2022-11-15T14:59:36;4.65;;;2.00;;
61903;SDS011;47857;52.270;6.804;2022-11-15T15:02:02;5.32;;;1.70;;
61903;SDS011;47857;52.270;6.804;2022-11-15T15:04:27;3.85;;;1.58;;
61903;SDS011;47857;52.270;6.804;2022-11-15T15:06:53;5.68;;;1.58;;
61903;SDS011;47857;52.270;6.804;2022-11-15T15:09:18;3.25;;;1.40;;
61903;SDS011;47857;52.270;6.804;2022-11-15T15:11:43;4.35;;;1.30;;
61903;SDS011;47857;52.270;6.804;2022-11-15T15:14:09;7.45;;;1.67;;
61903;SDS011;47857;52.270;6.804;2022-11-15T15:16:39;3.33;;;1.27;;
61903;SDS011;47857;52.270;6.804;2022-11-15T15:19:05;4.05;;;1.27;;
61903;SDS011;47857;52.270;6.804;2022-11-15T15:21:30;3.13;;;1.38;;
61903;SDS011;47857;52.270;6.804;2022-11-15T15:23:56;3.78;;;2.10;;
61903;SDS011;47857;52.270;6.804;2022-11-15T15:26:24;5.20;;;1.70;;
61903;SDS011;47857;52.270;6.804;2022-11-15T15:28:50;5.78;;;1.80;;
61903;SDS011;47857;52.270;6.804;2022-11-15T15:31:17;7.00;;;1.50;;
61903;SDS011;47857;52.270;6.804;2022-11-15T15:33:43;1.95;;;1.13;;
61903;SDS011;47857;52.270;6.804;2022-11-15T15:36:12;2.33;;;1.40;;
61903;SDS011;47857;52.270;6.804;2022-11-15T15:38:39;2.92;;;1.08;;
61903;SDS011;47857;52.270;6.804;2022-11-15T15:41:10;4.95;;;1.30;;
61903;SDS011;47857;52.270;6.804;2022-11-15T15:43:40;4.15;;;1.48;;
61903;SDS011;47857;52.270;6.804;2022-11-15T15:46:12;2.63;;;1.30;;
61903;SDS011;47857;52.270;6.804;2022-11-15T15:48:39;3.28;;;1.40;;
61903;SDS011;47857;52.270;6.804;2022-11-15T15:51:05;4.35;;;1.25;;
61903;SDS011;47857;52.270;6.804;2022-11-15T15:53:31;3.38;;;1.35;;
61903;SDS011;47857;52.270;6.804;2022-11-15T15:55:57;3.15;;;1.27;;
61903;SDS011;47857;52.270;6.804;2022-11-15T15:58:22;2.55;;;1.10;;
61903;SDS011;47857;52.270;6.804;2022-11-15T16:00:48;3.67;;;1.38;;
61903;SDS011;47857;52.270;6.804;2022-11-15T16:03:13;4.30;;;1.70;;
61903;SDS011;47857;52.270;6.804;2022-11-15T16:05:39;3.85;;;1.60;;
61903;SDS011;47857;52.270;6.804;2022-11-15T16:08:04;8.20;;;1.55;;
61903;SDS011;47857;52.270;6.804;2022-11-15T16:10:33;6.75;;;2.28;;
61903;SDS011;47857;52.270;6.804;2022-11-15T16:13:02;5.93;;;2.40;;
61903;SDS011;47857;52.270;6.804;2022-11-15T16:15:29;21.83;;;11.05;;
61903;SDS011;47857;52.270;6.804;2022-11-15T16:17:56;6.13;;;3.13;;
61903;SDS011;47857;52.270;6.804;2022-11-15T16:20:26;8.00;;;3.35;;
61903;SDS011;47857;52.270;6.804;2022-11-15T16:23:08;10.02;;;5.25;;
61903;SDS011;47857;52.270;6.804;2022-11-15T16:28:09;4.30;;;1.80;;
61903;SDS011;47857;52.270;6.804;2022-11-15T16:30:45;4.70;;;2.10;;
61903;SDS011;47857;52.270;6.804;2022-11-15T16:33:11;4.00;;;1.60;;
61903;SDS011;47857;52.270;6.804;2022-11-15T16:35:36;3.55;;;1.80;;
61903;SDS011;47857;52.270;6.804;2022-11-15T16:38:02;5.80;;;2.10;;
61903;SDS011;47857;52.270;6.804;2022-11-15T16:40:28;4.03;;;1.98;;
61903;SDS011;47857;52.270;6.804;2022-11-15T16:42:58;6.85;;;2.80;;
61903;SDS011;47857;52.270;6.804;2022-11-15T16:45:24;4.07;;;2.28;;
61903;SDS011;47857;52.270;6.804;2022-11-15T16:47:50;5.60;;;2.00;;
61903;SDS011;47857;52.270;6.804;2022-11-15T16:50:27;4.60;;;2.10;;
61903;SDS011;47857;52.270;6.804;2022-11-15T16:52:58;4.80;;;2.13;;
61903;SDS011;47857;52.270;6.804;2022-11-15T16:55:25;3.83;;;1.90;;
61903;SDS011;47857;52.270;6.804;2022-11-15T16:57:52;4.78;;;1.52;;
61903;SDS011;47857;52.270;6.804;2022-11-15T17:00:19;6.63;;;1.77;;
61903;SDS011;47857;52.270;6.804;2022-11-15T17:02:46;5.65;;;1.70;;
61903;SDS011;47857;52.270;6.804;2022-11-15T17:05:13;6.03;;;1.65;;
61903;SDS011;47857;52.270;6.804;2022-11-15T17:07:40;3.47;;;1.70;;
61903;SDS011;47857;52.270;6.804;2022-11-15T17:10:06;3.85;;;2.20;;
61903;SDS011;47857;52.270;6.804;2022-11-15T17:12:33;4.10;;;2.15;;
61903;SDS011;47857;52.270;6.804;2022-11-15T17:14:59;2.70;;;1.88;;
61903;SDS011;47857;52.270;6.804;2022-11-15T17:17:25;4.20;;;1.80;;
61903;SDS011;47857;52.270;6.804;2022-11-15T17:19:51;4.30;;;2.15;;
61903;SDS011;47857;52.270;6.804;2022-11-15T17:22:17;3.60;;;1.73;;
61903;SDS011;47857;52.270;6.804;2022-11-15T17:24:43;3.78;;;1.80;;
61903;SDS011;47857;52.270;6.804;2022-11-15T17:27:08;3.70;;;1.80;;
61903;SDS011;47857;52.270;6.804;2022-11-15T17:29:37;4.90;;;1.70;;
61903;SDS011;47857;52.270;6.804;2022-11-15T17:32:02;6.00;;;1.88;;
61903;SDS011;47857;52.270;6.804;2022-11-15T17:34:28;6.15;;;1.60;;
61903;SDS011;47857;52.270;6.804;2022-11-15T17:36:53;5.00;;;1.77;;
61903;SDS011;47857;52.270;6.804;2022-11-15T17:39:19;6.03;;;1.90;;
61903;SDS011;47857;52.270;6.804;2022-11-15T17:41:45;8.95;;;2.15;;
61903;SDS011;47857;52.270;6.804;2022-11-15T17:44:11;3.80;;;1.85;;
61903;SDS011;47857;52.270;6.804;2022-11-15T17:46:36;6.18;;;2.00;;
61903;SDS011;47857;52.270;6.804;2022-11-15T17:49:02;8.05;;;2.45;;
61903;SDS011;47857;52.270;6.804;2022-11-15T17:51:27;5.30;;;1.90;;
61903;SDS011;47857;52.270;6.804;2022-11-15T17:53:53;3.20;;;1.65;;
61903;SDS011;47857;52.270;6.804;2022-11-15T17:56:20;5.97;;;2.85;;
61903;SDS011;47857;52.270;6.804;2022-11-15T17:58:47;4.63;;;2.05;;
61903;SDS011;47857;52.270;6.804;2022-11-15T18:01:21;3.33;;;1.70;;
61903;SDS011;47857;52.270;6.804;2022-11-15T18:03:51;5.65;;;1.60;;
61903;SDS011;47857;52.270;6.804;2022-11-15T18:06:18;3.90;;;1.58;;
61903;SDS011;47857;52.270;6.804;2022-11-15T18:08:44;4.47;;;1.70;;
61903;SDS011;47857;52.270;6.804;2022-11-15T18:11:12;4.90;;;1.92;;
61903;SDS011;47857;52.270;6.804;2022-11-15T18:13:46;4.72;;;2.03;;
61903;SDS011;47857;52.270;6.804;2022-11-15T18:16:15;8.70;;;2.05;;
61903;SDS011;47857;52.270;6.804;2022-11-15T18:18:41;3.92;;;1.90;;
61903;SDS011;47857;52.270;6.804;2022-11-15T18:21:14;4.82;;;1.90;;
61903;SDS011;47857;52.270;6.804;2022-11-15T18:23:43;5.93;;;2.17;;
61903;SDS011;47857;52.270;6.804;2022-11-15T18:26:09;7.80;;;2.60;;
61903;SDS011;47857;52.270;6.804;2022-11-15T18:28:48;6.88;;;2.85;;
61903;SDS011;47857;52.270;6.804;2022-11-15T18:31:15;7.60;;;2.80;;
61903;SDS011;47857;52.270;6.804;2022-11-15T18:33:41;3.42;;;1.98;;
61903;SDS011;47857;52.270;6.804;2022-11-15T18:36:08;6.75;;;1.77;;
61903;SDS011;47857;52.270;6.804;2022-11-15T18:38:36;4.20;;;1.90;;
61903;SDS011;47857;52.270;6.804;2022-11-15T18:41:09;3.33;;;1.90;;
61903;SDS011;47857;52.270;6.804;2022-11-15T18:43:36;7.07;;;2.22;;
61903;SDS011;47857;52.270;6.804;2022-11-15T18:48:33;6.95;;;2.20;;
61903;SDS011;47857;52.270;6.804;2022-11-15T18:51:08;4.45;;;1.98;;
61903;SDS011;47857;52.270;6.804;2022-11-15T18:53:34;6.32;;;2.42;;
61903;SDS011;47857;52.270;6.804;2022-11-15T18:56:01;5.43;;;2.33;;
61903;SDS011;47857;52.270;6.804;2022-11-15T18:58:47;5.65;;;2.20;;
61903;SDS011;47857;52.270;6.804;2022-11-15T19:01:15;5.32;;;2.10;;
61903;SDS011;47857;52.270;6.804;2022-11-15T19:03:46;5.40;;;2.17;;
61903;SDS011;47857;52.270;6.804;2022-11-15T19:06:16;6.80;;;2.50;;
61903;SDS011;47857;52.270;6.804;2022-11-15T19:08:44;7.90;;;2.75;;
61903;SDS011;47857;52.270;6.804;2022-11-15T19:13:51;6.30;;;2.90;;
61903;SDS011;47857;52.270;6.804;2022-11-15T19:16:39;5.15;;;2.40;;
61903;SDS011;47857;52.270;6.804;2022-11-15T19:19:07;10.10;;;3.00;;
61903;SDS011;47857;52.270;6.804;2022-11-15T19:21:35;5.28;;;2.35;;